sensor_id;sensor_type;location;lat;lon;timestamp;P1;durP1;ratioP1;P2;durP2;ratioP2
66970;SDS011;53901;51.466;-2.588;2022-07-11T00:01:38;8.02;;;3.70;;
66970;SDS011;53901;51.466;-2.588;2022-07-11T00:04:04;7.55;;;3.22;;
66970;SDS011;53901;51.466;-2.588;2022-07-11T00:06:29;5.93;;;3.38;;
66970;SDS011;53901;51.466;-2.588;2022-07-11T00:08:55;6.15;;;3.28;;
66970;SDS011;53901;51.466;-2.588;2022-07-11T00:11:20;6.13;;;3.28;;
66970;SDS011;53901;51.466;-2.588;2022-07-11T00:13:45;7.68;;;3.90;;
66970;SDS011;53901;51.466;-2.588;2022-07-11T00:16:11;6.88;;;3.45;;
66970;SDS011;53901;51.466;-2.588;2022-07-11T00:18:41;7.60;;;3.22;;
66970;SDS011;53901;51.466;-2.588;2022-07-11T00:21:06;8.07;;;3.25;;
66970;SDS011;53901;51.466;-2.588;2022-07-11T00:23:32;8.48;;;3.30;;
66970;SDS011;53901;51.466;-2.588;2022-07-11T00:26:04;8.40;;;3.50;;
66970;SDS011;53901;51.466;-2.588;2022-07-11T00:28:33;5.68;;;3.10;;
66970;SDS011;53901;51.466;-2.588;2022-07-11T00:30:58;5.45;;;3.40;;
66970;SDS011;53901;51.466;-2.588;2022-07-11T00:33:24;5.78;;;3.50;;
66970;SDS011;53901;51.466;-2.588;2022-07-11T00:35:49;11.95;;;3.60;;
66970;SDS011;53901;51.466;-2.588;2022-07-11T00:38:15;7.20;;;3.50;;
66970;SDS011;53901;51.466;-2.588;2022-07-11T00:40:40;8.73;;;3.90;;
66970;SDS011;53901;51.466;-2.588;2022-07-11T00:43:06;7.30;;;3.53;;
66970;SDS011;53901;51.466;-2.588;2022-07-11T00:45:31;6.32;;;3.45;;
66970;SDS011;53901;51.466;-2.588;2022-07-11T00:47:57;8.13;;;3.58;;
66970;SDS011;53901;51.466;-2.588;2022-07-11T00:50:23;8.00;;;3.53;;
66970;SDS011;53901;51.466;-2.588;2022-07-11T00:52:52;8.98;;;3.85;;
66970;SDS011;53901;51.466;-2.588;2022-07-11T00:55:17;10.50;;;3.83;;
66970;SDS011;53901;51.466;-2.588;2022-07-11T00:57:43;6.63;;;3.70;;
66970;SDS011;53901;51.466;-2.588;2022-07-11T01:00:09;5.63;;;3.70;;
66970;SDS011;53901;51.466;-2.588;2022-07-11T01:02:36;5.78;;;3.60;;
66970;SDS011;53901;51.466;-2.588;2022-07-11T01:05:01;7.88;;;3.53;;
66970;SDS011;53901;51.466;-2.588;2022-07-11T01:07:27;7.90;;;3.55;;
66970;SDS011;53901;51.466;-2.588;2022-07-11T01:09:52;6.25;;;3.47;;
66970;SDS011;53901;51.466;-2.588;2022-07-11T01:12:18;8.30;;;3.65;;
66970;SDS011;53901;51.466;-2.588;2022-07-11T01:14:50;6.70;;;3.45;;
66970;SDS011;53901;51.466;-2.588;2022-07-11T01:17:19;6.20;;;3.65;;
66970;SDS011;53901;51.466;-2.588;2022-07-11T01:19:44;7.80;;;3.72;;
66970;SDS011;53901;51.466;-2.588;2022-07-11T01:22:10;5.00;;;3.28;;
66970;SDS011;53901;51.466;-2.588;2022-07-11T01:24:39;8.73;;;3.63;;
66970;SDS011;53901;51.466;-2.588;2022-07-11T01:27:05;9.13;;;3.53;;
66970;SDS011;53901;51.466;-2.588;2022-07-11T01:29:32;6.43;;;3.58;;
66970;SDS011;53901;51.466;-2.588;2022-07-11T01:31:58;6.90;;;3.75;;
66970;SDS011;53901;51.466;-2.588;2022-07-11T01:34:23;7.03;;;3.60;;
66970;SDS011;53901;51.466;-2.588;2022-07-11T01:36:48;7.07;;;3.40;;
66970;SDS011;53901;51.466;-2.588;2022-07-11T01:39:14;7.38;;;3.70;;
66970;SDS011;53901;51.466;-2.588;2022-07-11T01:41:39;9.32;;;3.28;;
66970;SDS011;53901;51.466;-2.588;2022-07-11T01:44:05;6.43;;;3.35;;
66970;SDS011;53901;51.466;-2.588;2022-07-11T01:46:31;9.40;;;3.63;;
66970;SDS011;53901;51.466;-2.588;2022-07-11T01:48:56;6.53;;;3.30;;
66970;SDS011;53901;51.466;-2.588;2022-07-11T01:51:22;5.82;;;3.42;;
66970;SDS011;53901;51.466;-2.588;2022-07-11T01:53:48;6.82;;;3.30;;
66970;SDS011;53901;51.466;-2.588;2022-07-11T01:56:13;6.88;;;3.40;;
66970;SDS011;53901;51.466;-2.588;2022-07-11T01:58:39;6.63;;;3.40;;
66970;SDS011;53901;51.466;-2.588;2022-07-11T02:01:04;12.13;;;3.53;;
66970;SDS011;53901;51.466;-2.588;2022-07-11T02:03:29;6.82;;;3.15;;
66970;SDS011;53901;51.466;-2.588;2022-07-11T02:05:55;10.13;;;3.53;;
66970;SDS011;53901;51.466;-2.588;2022-07-11T02:08:20;5.25;;;3.40;;
66970;SDS011;53901;51.466;-2.588;2022-07-11T02:10:50;6.57;;;3.33;;
66970;SDS011;53901;51.466;-2.588;2022-07-11T02:13:18;6.60;;;3.42;;
66970;SDS011;53901;51.466;-2.588;2022-07-11T02:15:45;6.82;;;2.90;;
66970;SDS011;53901;51.466;-2.588;2022-07-11T02:18:16;6.22;;;2.80;;
66970;SDS011;53901;51.466;-2.588;2022-07-11T02:20:43;4.80;;;2.92;;
66970;SDS011;53901;51.466;-2.588;2022-07-11T02:23:10;10.40;;;3.13;;
66970;SDS011;53901;51.466;-2.588;2022-07-11T02:25:37;5.53;;;3.00;;
66970;SDS011;53901;51.466;-2.588;2022-07-11T02:28:06;7.38;;;3.00;;
66970;SDS011;53901;51.466;-2.588;2022-07-11T02:30:38;4.97;;;3.22;;
66970;SDS011;53901;51.466;-2.588;2022-07-11T02:33:05;4.32;;;2.42;;
66970;SDS011;53901;51.466;-2.588;2022-07-11T02:35:32;4.70;;;2.78;;
66970;SDS011;53901;51.466;-2.588;2022-07-11T02:37:59;5.22;;;3.50;;
66970;SDS011;53901;51.466;-2.588;2022-07-11T02:40:25;6.25;;;2.83;;
66970;SDS011;53901;51.466;-2.588;2022-07-11T02:42:51;3.65;;;2.40;;
66970;SDS011;53901;51.466;-2.588;2022-07-11T02:45:17;15.15;;;2.70;;
66970;SDS011;53901;51.466;-2.588;2022-07-11T02:47:43;3.90;;;2.65;;
66970;SDS011;53901;51.466;-2.588;2022-07-11T02:50:12;5.13;;;2.90;;
66970;SDS011;53901;51.466;-2.588;2022-07-11T02:52:38;4.75;;;2.90;;
66970;SDS011;53901;51.466;-2.588;2022-07-11T02:55:05;4.82;;;2.97;;
66970;SDS011;53901;51.466;-2.588;2022-07-11T02:57:32;3.20;;;2.50;;
66970;SDS011;53901;51.466;-2.588;2022-07-11T02:59:58;5.15;;;2.80;;
66970;SDS011;53901;51.466;-2.588;2022-07-11T03:02:24;4.50;;;2.58;;
66970;SDS011;53901;51.466;-2.588;2022-07-11T03:04:49;6.35;;;3.00;;
66970;SDS011;53901;51.466;-2.588;2022-07-11T03:07:15;5.65;;;3.00;;
66970;SDS011;53901;51.466;-2.588;2022-07-11T03:09:41;4.43;;;2.80;;
66970;SDS011;53901;51.466;-2.588;2022-07-11T03:12:07;6.72;;;2.97;;
66970;SDS011;53901;51.466;-2.588;2022-07-11T03:14:32;5.95;;;2.70;;
66970;SDS011;53901;51.466;-2.588;2022-07-11T03:16:58;4.25;;;2.60;;
66970;SDS011;53901;51.466;-2.588;2022-07-11T03:19:23;4.43;;;2.70;;
66970;SDS011;53901;51.466;-2.588;2022-07-11T03:21:49;4.95;;;2.65;;
66970;SDS011;53901;51.466;-2.588;2022-07-11T03:24:14;4.15;;;2.72;;
66970;SDS011;53901;51.466;-2.588;2022-07-11T03:26:39;5.03;;;2.88;;
66970;SDS011;53901;51.466;-2.588;2022-07-11T03:29:05;4.07;;;2.80;;
66970;SDS011;53901;51.466;-2.588;2022-07-11T03:31:33;5.05;;;2.67;;
66970;SDS011;53901;51.466;-2.588;2022-07-11T03:33:58;4.63;;;2.90;;
66970;SDS011;53901;51.466;-2.588;2022-07-11T03:36:24;4.40;;;2.58;;
66970;SDS011;53901;51.466;-2.588;2022-07-11T03:38:49;3.83;;;2.63;;
66970;SDS011;53901;51.466;-2.588;2022-07-11T03:41:15;4.45;;;2.60;;
66970;SDS011;53901;51.466;-2.588;2022-07-11T03:43:40;4.63;;;2.45;;
66970;SDS011;53901;51.466;-2.588;2022-07-11T03:46:05;4.50;;;2.70;;
66970;SDS011;53901;51.466;-2.588;2022-07-11T03:48:31;4.47;;;2.60;;
66970;SDS011;53901;51.466;-2.588;2022-07-11T03:50:57;6.38;;;2.65;;
66970;SDS011;53901;51.466;-2.588;2022-07-11T03:53:22;4.85;;;2.60;;
66970;SDS011;53901;51.466;-2.588;2022-07-11T03:55:48;5.57;;;2.60;;
66970;SDS011;53901;51.466;-2.588;2022-07-11T03:58:13;4.13;;;2.55;;
66970;SDS011;53901;51.466;-2.588;2022-07-11T04:00:39;4.80;;;2.78;;
66970;SDS011;53901;51.466;-2.588;2022-07-11T04:03:05;5.55;;;2.72;;
66970;SDS011;53901;51.466;-2.588;2022-07-11T04:05:30;6.13;;;2.95;;
66970;SDS011;53901;51.466;-2.588;2022-07-11T04:07:56;4.82;;;2.90;;
66970;SDS011;53901;51.466;-2.588;2022-07-11T04:10:22;4.28;;;2.45;;
66970;SDS011;53901;51.466;-2.588;2022-07-11T04:12:48;6.82;;;2.70;;
66970;SDS011;53901;51.466;-2.588;2022-07-11T04:15:14;5.03;;;2.67;;
66970;SDS011;53901;51.466;-2.588;2022-07-11T04:17:39;4.22;;;2.60;;
66970;SDS011;53901;51.466;-2.588;2022-07-11T04:20:05;6.60;;;2.50;;
66970;SDS011;53901;51.466;-2.588;2022-07-11T04:22:30;4.95;;;2.85;;
66970;SDS011;53901;51.466;-2.588;2022-07-11T04:24:56;4.75;;;2.70;;
66970;SDS011;53901;51.466;-2.588;2022-07-11T04:27:22;4.32;;;2.17;;
66970;SDS011;53901;51.466;-2.588;2022-07-11T04:29:49;4.00;;;2.40;;
66970;SDS011;53901;51.466;-2.588;2022-07-11T04:32:15;5.90;;;2.80;;
66970;SDS011;53901;51.466;-2.588;2022-07-11T04:34:40;3.55;;;2.20;;
66970;SDS011;53901;51.466;-2.588;2022-07-11T04:37:05;4.30;;;2.50;;
66970;SDS011;53901;51.466;-2.588;2022-07-11T04:39:31;6.40;;;2.55;;
66970;SDS011;53901;51.466;-2.588;2022-07-11T04:42:00;6.38;;;2.75;;
66970;SDS011;53901;51.466;-2.588;2022-07-11T04:44:28;4.15;;;2.38;;
66970;SDS011;53901;51.466;-2.588;2022-07-11T04:46:54;5.50;;;2.47;;
66970;SDS011;53901;51.466;-2.588;2022-07-11T04:49:20;5.30;;;2.53;;
66970;SDS011;53901;51.466;-2.588;2022-07-11T04:51:46;3.38;;;2.30;;
66970;SDS011;53901;51.466;-2.588;2022-07-11T04:54:11;4.03;;;2.30;;
66970;SDS011;53901;51.466;-2.588;2022-07-11T04:56:36;4.85;;;2.10;;
66970;SDS011;53901;51.466;-2.588;2022-07-11T04:59:02;3.72;;;2.20;;
66970;SDS011;53901;51.466;-2.588;2022-07-11T05:01:29;3.88;;;2.20;;
66970;SDS011;53901;51.466;-2.588;2022-07-11T05:03:54;2.97;;;2.08;;
66970;SDS011;53901;51.466;-2.588;2022-07-11T05:06:20;8.93;;;2.35;;
66970;SDS011;53901;51.466;-2.588;2022-07-11T05:08:46;6.20;;;2.38;;
66970;SDS011;53901;51.466;-2.588;2022-07-11T05:11:11;3.78;;;2.20;;
66970;SDS011;53901;51.466;-2.588;2022-07-11T05:13:36;5.07;;;2.50;;
66970;SDS011;53901;51.466;-2.588;2022-07-11T05:16:02;6.22;;;2.30;;
66970;SDS011;53901;51.466;-2.588;2022-07-11T05:18:28;3.55;;;2.17;;
66970;SDS011;53901;51.466;-2.588;2022-07-11T05:20:53;3.70;;;2.17;;
66970;SDS011;53901;51.466;-2.588;2022-07-11T05:23:19;12.88;;;5.70;;
66970;SDS011;53901;51.466;-2.588;2022-07-11T05:25:45;3.60;;;2.40;;
66970;SDS011;53901;51.466;-2.588;2022-07-11T05:28:10;7.95;;;2.40;;
66970;SDS011;53901;51.466;-2.588;2022-07-11T05:30:35;5.80;;;2.40;;
66970;SDS011;53901;51.466;-2.588;2022-07-11T05:33:01;3.75;;;2.40;;
66970;SDS011;53901;51.466;-2.588;2022-07-11T05:35:26;5.93;;;2.58;;
66970;SDS011;53901;51.466;-2.588;2022-07-11T05:37:52;5.80;;;2.10;;
66970;SDS011;53901;51.466;-2.588;2022-07-11T05:40:17;4.13;;;2.30;;
66970;SDS011;53901;51.466;-2.588;2022-07-11T05:42:43;7.18;;;2.80;;
66970;SDS011;53901;51.466;-2.588;2022-07-11T05:45:09;5.47;;;2.08;;
66970;SDS011;53901;51.466;-2.588;2022-07-11T05:47:34;4.00;;;2.38;;
66970;SDS011;53901;51.466;-2.588;2022-07-11T05:50:00;3.47;;;2.47;;
66970;SDS011;53901;51.466;-2.588;2022-07-11T05:52:25;3.85;;;2.30;;
66970;SDS011;53901;51.466;-2.588;2022-07-11T05:54:51;6.43;;;2.38;;
66970;SDS011;53901;51.466;-2.588;2022-07-11T05:57:16;4.57;;;2.30;;
66970;SDS011;53901;51.466;-2.588;2022-07-11T05:59:41;3.08;;;1.98;;
66970;SDS011;53901;51.466;-2.588;2022-07-11T06:02:07;3.42;;;2.03;;
66970;SDS011;53901;51.466;-2.588;2022-07-11T06:04:34;3.25;;;2.20;;
66970;SDS011;53901;51.466;-2.588;2022-07-11T06:06:59;3.95;;;2.50;;
66970;SDS011;53901;51.466;-2.588;2022-07-11T06:09:25;5.80;;;2.40;;
66970;SDS011;53901;51.466;-2.588;2022-07-11T06:11:50;4.30;;;2.17;;
66970;SDS011;53901;51.466;-2.588;2022-07-11T06:14:17;5.13;;;2.20;;
66970;SDS011;53901;51.466;-2.588;2022-07-11T06:16:43;16.05;;;3.00;;
66970;SDS011;53901;51.466;-2.588;2022-07-11T06:19:08;4.30;;;2.63;;
66970;SDS011;53901;51.466;-2.588;2022-07-11T06:21:34;4.82;;;2.55;;
66970;SDS011;53901;51.466;-2.588;2022-07-11T06:23:59;3.90;;;2.33;;
66970;SDS011;53901;51.466;-2.588;2022-07-11T06:26:24;4.22;;;2.47;;
66970;SDS011;53901;51.466;-2.588;2022-07-11T06:28:50;7.85;;;2.53;;
66970;SDS011;53901;51.466;-2.588;2022-07-11T06:31:16;8.00;;;2.20;;
66970;SDS011;53901;51.466;-2.588;2022-07-11T06:33:41;9.95;;;2.90;;
66970;SDS011;53901;51.466;-2.588;2022-07-11T06:36:07;5.18;;;2.70;;
66970;SDS011;53901;51.466;-2.588;2022-07-11T06:38:33;5.25;;;2.53;;
66970;SDS011;53901;51.466;-2.588;2022-07-11T06:40:58;4.95;;;2.60;;
66970;SDS011;53901;51.466;-2.588;2022-07-11T06:43:24;7.45;;;2.83;;
66970;SDS011;53901;51.466;-2.588;2022-07-11T06:45:50;4.80;;;2.72;;
66970;SDS011;53901;51.466;-2.588;2022-07-11T06:48:15;5.28;;;2.85;;
66970;SDS011;53901;51.466;-2.588;2022-07-11T06:50:41;7.00;;;3.05;;
66970;SDS011;53901;51.466;-2.588;2022-07-11T06:53:07;6.13;;;3.03;;
66970;SDS011;53901;51.466;-2.588;2022-07-11T06:55:32;6.07;;;2.92;;
66970;SDS011;53901;51.466;-2.588;2022-07-11T06:57:58;6.05;;;2.97;;
66970;SDS011;53901;51.466;-2.588;2022-07-11T07:00:24;6.68;;;3.08;;
66970;SDS011;53901;51.466;-2.588;2022-07-11T07:02:50;5.20;;;3.33;;
66970;SDS011;53901;51.466;-2.588;2022-07-11T07:05:15;6.32;;;3.13;;
66970;SDS011;53901;51.466;-2.588;2022-07-11T07:07:41;6.13;;;3.20;;
66970;SDS011;53901;51.466;-2.588;2022-07-11T07:10:06;8.10;;;3.22;;
66970;SDS011;53901;51.466;-2.588;2022-07-11T07:12:32;5.68;;;3.08;;
66970;SDS011;53901;51.466;-2.588;2022-07-11T07:15:03;7.72;;;3.50;;
66970;SDS011;53901;51.466;-2.588;2022-07-11T07:17:29;11.40;;;3.30;;
66970;SDS011;53901;51.466;-2.588;2022-07-11T07:19:56;7.40;;;3.22;;
66970;SDS011;53901;51.466;-2.588;2022-07-11T07:22:21;11.15;;;3.20;;
66970;SDS011;53901;51.466;-2.588;2022-07-11T07:24:47;10.35;;;3.03;;
66970;SDS011;53901;51.466;-2.588;2022-07-11T07:27:12;11.32;;;3.58;;
66970;SDS011;53901;51.466;-2.588;2022-07-11T07:29:38;14.23;;;3.63;;
66970;SDS011;53901;51.466;-2.588;2022-07-11T07:32:04;8.95;;;2.97;;
66970;SDS011;53901;51.466;-2.588;2022-07-11T07:34:30;17.48;;;4.50;;
66970;SDS011;53901;51.466;-2.588;2022-07-11T07:36:55;9.35;;;2.92;;
66970;SDS011;53901;51.466;-2.588;2022-07-11T07:39:21;9.98;;;3.08;;
66970;SDS011;53901;51.466;-2.588;2022-07-11T07:41:46;67.32;;;6.20;;
66970;SDS011;53901;51.466;-2.588;2022-07-11T07:44:12;24.77;;;3.10;;
66970;SDS011;53901;51.466;-2.588;2022-07-11T07:46:37;17.70;;;3.20;;
66970;SDS011;53901;51.466;-2.588;2022-07-11T07:49:03;12.80;;;2.92;;
66970;SDS011;53901;51.466;-2.588;2022-07-11T07:51:28;11.20;;;2.75;;
66970;SDS011;53901;51.466;-2.588;2022-07-11T07:53:55;9.15;;;2.72;;
66970;SDS011;53901;51.466;-2.588;2022-07-11T07:56:20;9.80;;;2.95;;
66970;SDS011;53901;51.466;-2.588;2022-07-11T07:58:46;9.02;;;2.90;;
66970;SDS011;53901;51.466;-2.588;2022-07-11T08:01:11;8.40;;;3.00;;
66970;SDS011;53901;51.466;-2.588;2022-07-11T08:03:55;11.57;;;3.00;;
66970;SDS011;53901;51.466;-2.588;2022-07-11T08:06:21;7.35;;;2.58;;
66970;SDS011;53901;51.466;-2.588;2022-07-11T08:08:46;7.30;;;2.45;;
66970;SDS011;53901;51.466;-2.588;2022-07-11T08:11:12;4.47;;;2.30;;
66970;SDS011;53901;51.466;-2.588;2022-07-11T08:13:38;8.05;;;2.50;;
66970;SDS011;53901;51.466;-2.588;2022-07-11T08:16:04;8.32;;;2.78;;
66970;SDS011;53901;51.466;-2.588;2022-07-11T08:18:30;8.15;;;3.03;;
66970;SDS011;53901;51.466;-2.588;2022-07-11T08:20:56;4.80;;;2.45;;
66970;SDS011;53901;51.466;-2.588;2022-07-11T08:23:21;5.55;;;2.10;;
66970;SDS011;53901;51.466;-2.588;2022-07-11T08:25:47;5.97;;;2.15;;
66970;SDS011;53901;51.466;-2.588;2022-07-11T08:28:12;5.40;;;2.30;;
66970;SDS011;53901;51.466;-2.588;2022-07-11T08:30:38;3.53;;;2.25;;
66970;SDS011;53901;51.466;-2.588;2022-07-11T08:33:04;5.45;;;2.30;;
66970;SDS011;53901;51.466;-2.588;2022-07-11T08:35:29;4.03;;;2.40;;
66970;SDS011;53901;51.466;-2.588;2022-07-11T08:37:55;5.70;;;2.17;;
66970;SDS011;53901;51.466;-2.588;2022-07-11T08:40:20;6.32;;;2.58;;
66970;SDS011;53901;51.466;-2.588;2022-07-11T08:42:46;5.28;;;2.17;;
66970;SDS011;53901;51.466;-2.588;2022-07-11T08:47:37;4.82;;;1.77;;
66970;SDS011;53901;51.466;-2.588;2022-07-11T08:50:04;7.40;;;2.15;;
66970;SDS011;53901;51.466;-2.588;2022-07-11T08:52:31;3.42;;;1.77;;
66970;SDS011;53901;51.466;-2.588;2022-07-11T08:54:57;5.85;;;1.92;;
66970;SDS011;53901;51.466;-2.588;2022-07-11T08:57:22;4.90;;;1.85;;
66970;SDS011;53901;51.466;-2.588;2022-07-11T08:59:47;5.22;;;1.52;;
66970;SDS011;53901;51.466;-2.588;2022-07-11T09:02:14;3.42;;;1.80;;
66970;SDS011;53901;51.466;-2.588;2022-07-11T09:04:40;3.05;;;1.50;;
66970;SDS011;53901;51.466;-2.588;2022-07-11T09:07:06;3.85;;;1.65;;
66970;SDS011;53901;51.466;-2.588;2022-07-11T09:09:31;3.03;;;1.60;;
66970;SDS011;53901;51.466;-2.588;2022-07-11T09:11:57;5.10;;;1.73;;
66970;SDS011;53901;51.466;-2.588;2022-07-11T09:14:26;4.05;;;1.50;;
66970;SDS011;53901;51.466;-2.588;2022-07-11T09:16:53;5.45;;;1.63;;
66970;SDS011;53901;51.466;-2.588;2022-07-11T09:19:20;2.80;;;1.40;;
66970;SDS011;53901;51.466;-2.588;2022-07-11T09:27:45;3.83;;;1.50;;
66970;SDS011;53901;51.466;-2.588;2022-07-11T09:30:20;6.47;;;1.40;;
66970;SDS011;53901;51.466;-2.588;2022-07-11T09:35:38;2.70;;;1.50;;
66970;SDS011;53901;51.466;-2.588;2022-07-11T09:38:05;8.60;;;1.88;;
66970;SDS011;53901;51.466;-2.588;2022-07-11T09:40:35;12.00;;;1.58;;
66970;SDS011;53901;51.466;-2.588;2022-07-11T09:43:01;3.00;;;1.80;;
66970;SDS011;53901;51.466;-2.588;2022-07-11T09:45:28;9.32;;;1.83;;
66970;SDS011;53901;51.466;-2.588;2022-07-11T09:47:56;5.53;;;1.40;;
66970;SDS011;53901;51.466;-2.588;2022-07-11T09:55:35;3.03;;;1.50;;
66970;SDS011;53901;51.466;-2.588;2022-07-11T09:58:05;3.13;;;1.13;;
66970;SDS011;53901;51.466;-2.588;2022-07-11T10:00:31;3.30;;;1.42;;
66970;SDS011;53901;51.466;-2.588;2022-07-11T10:02:58;6.38;;;1.58;;
66970;SDS011;53901;51.466;-2.588;2022-07-11T10:05:24;3.22;;;1.33;;
66970;SDS011;53901;51.466;-2.588;2022-07-11T10:07:50;3.80;;;1.20;;
66970;SDS011;53901;51.466;-2.588;2022-07-11T10:10:15;2.95;;;1.10;;
66970;SDS011;53901;51.466;-2.588;2022-07-11T10:12:42;3.30;;;1.30;;
66970;SDS011;53901;51.466;-2.588;2022-07-11T10:15:11;2.63;;;1.20;;
66970;SDS011;53901;51.466;-2.588;2022-07-11T10:20:14;6.38;;;1.40;;
66970;SDS011;53901;51.466;-2.588;2022-07-11T10:33:12;3.95;;;1.42;;
66970;SDS011;53901;51.466;-2.588;2022-07-11T10:35:39;4.32;;;1.30;;
66970;SDS011;53901;51.466;-2.588;2022-07-11T10:38:09;4.70;;;1.60;;
66970;SDS011;53901;51.466;-2.588;2022-07-11T10:43:33;2.03;;;1.40;;
66970;SDS011;53901;51.466;-2.588;2022-07-11T10:46:02;3.20;;;1.58;;
66970;SDS011;53901;51.466;-2.588;2022-07-11T10:48:29;4.07;;;1.65;;
66970;SDS011;53901;51.466;-2.588;2022-07-11T10:51:08;3.40;;;1.40;;
66970;SDS011;53901;51.466;-2.588;2022-07-11T10:53:39;5.30;;;2.92;;
66970;SDS011;53901;51.466;-2.588;2022-07-11T10:56:20;30.05;;;2.28;;
66970;SDS011;53901;51.466;-2.588;2022-07-11T11:23:29;5.05;;;1.55;;
66970;SDS011;53901;51.466;-2.588;2022-07-11T11:28:37;2.33;;;1.30;;
66970;SDS011;53901;51.466;-2.588;2022-07-11T11:31:04;2.40;;;1.30;;
66970;SDS011;53901;51.466;-2.588;2022-07-11T11:33:31;3.55;;;1.63;;
66970;SDS011;53901;51.466;-2.588;2022-07-11T11:36:08;7.50;;;1.70;;
66970;SDS011;53901;51.466;-2.588;2022-07-11T11:38:44;6.18;;;1.67;;
66970;SDS011;53901;51.466;-2.588;2022-07-11T11:41:13;2.92;;;1.45;;
66970;SDS011;53901;51.466;-2.588;2022-07-11T11:43:39;9.85;;;1.63;;
66970;SDS011;53901;51.466;-2.588;2022-07-11T11:46:11;3.83;;;1.38;;
66970;SDS011;53901;51.466;-2.588;2022-07-11T11:48:37;2.72;;;1.35;;
66970;SDS011;53901;51.466;-2.588;2022-07-11T11:51:07;2.03;;;1.10;;
66970;SDS011;53901;51.466;-2.588;2022-07-11T11:53:44;2.40;;;1.40;;
66970;SDS011;53901;51.466;-2.588;2022-07-11T11:58:41;4.72;;;1.40;;
66970;SDS011;53901;51.466;-2.588;2022-07-11T12:01:10;4.47;;;1.40;;
66970;SDS011;53901;51.466;-2.588;2022-07-11T12:03:46;4.53;;;1.30;;
66970;SDS011;53901;51.466;-2.588;2022-07-11T12:06:27;2.95;;;1.50;;
66970;SDS011;53901;51.466;-2.588;2022-07-11T12:11:29;4.57;;;1.30;;
66970;SDS011;53901;51.466;-2.588;2022-07-11T12:13:59;7.55;;;2.00;;
66970;SDS011;53901;51.466;-2.588;2022-07-11T12:16:27;5.03;;;1.35;;
66970;SDS011;53901;51.466;-2.588;2022-07-11T12:19:04;4.60;;;1.40;;
66970;SDS011;53901;51.466;-2.588;2022-07-11T12:21:32;2.53;;;1.40;;
66970;SDS011;53901;51.466;-2.588;2022-07-11T12:23:58;7.18;;;1.70;;
66970;SDS011;53901;51.466;-2.588;2022-07-11T12:26:28;9.20;;;1.80;;
66970;SDS011;53901;51.466;-2.588;2022-07-11T12:29:11;4.35;;;1.48;;
66970;SDS011;53901;51.466;-2.588;2022-07-11T12:32:10;3.53;;;1.65;;
66970;SDS011;53901;51.466;-2.588;2022-07-11T12:37:08;3.53;;;1.35;;
66970;SDS011;53901;51.466;-2.588;2022-07-11T12:39:35;3.20;;;1.30;;
66970;SDS011;53901;51.466;-2.588;2022-07-11T12:42:20;3.65;;;1.40;;
66970;SDS011;53901;51.466;-2.588;2022-07-11T12:45:13;2.67;;;1.52;;
66970;SDS011;53901;51.466;-2.588;2022-07-11T12:50:19;6.38;;;1.40;;
66970;SDS011;53901;51.466;-2.588;2022-07-11T12:52:52;2.53;;;1.50;;
66970;SDS011;53901;51.466;-2.588;2022-07-11T12:55:23;2.97;;;1.30;;
66970;SDS011;53901;51.466;-2.588;2022-07-11T13:00:36;2.42;;;1.17;;
66970;SDS011;53901;51.466;-2.588;2022-07-11T13:03:31;2.45;;;1.48;;
66970;SDS011;53901;51.466;-2.588;2022-07-11T13:05:58;2.45;;;1.33;;
66970;SDS011;53901;51.466;-2.588;2022-07-11T13:08:29;6.22;;;1.90;;
66970;SDS011;53901;51.466;-2.588;2022-07-11T13:13:38;4.95;;;1.50;;
66970;SDS011;53901;51.466;-2.588;2022-07-11T13:16:04;4.47;;;1.50;;
66970;SDS011;53901;51.466;-2.588;2022-07-11T13:18:31;5.03;;;1.30;;
66970;SDS011;53901;51.466;-2.588;2022-07-11T13:20:57;3.97;;;1.20;;
66970;SDS011;53901;51.466;-2.588;2022-07-11T13:23:22;6.15;;;1.27;;
66970;SDS011;53901;51.466;-2.588;2022-07-11T13:25:48;4.47;;;1.25;;
66970;SDS011;53901;51.466;-2.588;2022-07-11T13:28:13;2.63;;;1.20;;
66970;SDS011;53901;51.466;-2.588;2022-07-11T13:30:39;4.13;;;1.30;;
66970;SDS011;53901;51.466;-2.588;2022-07-11T13:33:05;2.90;;;1.40;;
66970;SDS011;53901;51.466;-2.588;2022-07-11T13:35:31;2.83;;;1.20;;
66970;SDS011;53901;51.466;-2.588;2022-07-11T13:37:57;3.70;;;1.23;;
66970;SDS011;53901;51.466;-2.588;2022-07-11T13:40:22;3.40;;;1.30;;
66970;SDS011;53901;51.466;-2.588;2022-07-11T13:42:48;3.28;;;1.35;;
66970;SDS011;53901;51.466;-2.588;2022-07-11T13:45:15;2.42;;;1.30;;
66970;SDS011;53901;51.466;-2.588;2022-07-11T13:47:42;6.60;;;1.30;;
66970;SDS011;53901;51.466;-2.588;2022-07-11T13:50:08;7.25;;;1.60;;
66970;SDS011;53901;51.466;-2.588;2022-07-11T13:52:34;8.63;;;1.60;;
66970;SDS011;53901;51.466;-2.588;2022-07-11T13:55:03;5.78;;;1.58;;
66970;SDS011;53901;51.466;-2.588;2022-07-11T13:57:29;4.28;;;1.52;;
66970;SDS011;53901;51.466;-2.588;2022-07-11T13:59:54;4.10;;;1.30;;
66970;SDS011;53901;51.466;-2.588;2022-07-11T14:02:22;2.72;;;1.30;;
66970;SDS011;53901;51.466;-2.588;2022-07-11T14:04:47;6.82;;;1.50;;
66970;SDS011;53901;51.466;-2.588;2022-07-11T14:07:13;5.35;;;1.40;;
66970;SDS011;53901;51.466;-2.588;2022-07-11T14:09:39;2.83;;;1.20;;
66970;SDS011;53901;51.466;-2.588;2022-07-11T14:12:05;4.40;;;1.27;;
66970;SDS011;53901;51.466;-2.588;2022-07-11T14:14:31;6.72;;;1.27;;
66970;SDS011;53901;51.466;-2.588;2022-07-11T14:16:58;3.85;;;1.30;;
66970;SDS011;53901;51.466;-2.588;2022-07-11T14:19:23;3.67;;;1.30;;
66970;SDS011;53901;51.466;-2.588;2022-07-11T14:21:49;4.68;;;1.50;;
66970;SDS011;53901;51.466;-2.588;2022-07-11T14:24:14;5.07;;;1.67;;
66970;SDS011;53901;51.466;-2.588;2022-07-11T14:26:41;7.68;;;1.45;;
66970;SDS011;53901;51.466;-2.588;2022-07-11T14:29:06;8.40;;;2.78;;
66970;SDS011;53901;51.466;-2.588;2022-07-11T14:31:32;8.02;;;1.50;;
66970;SDS011;53901;51.466;-2.588;2022-07-11T14:33:58;5.25;;;1.40;;
66970;SDS011;53901;51.466;-2.588;2022-07-11T14:36:24;3.05;;;1.20;;
66970;SDS011;53901;51.466;-2.588;2022-07-11T14:38:50;3.58;;;1.30;;
66970;SDS011;53901;51.466;-2.588;2022-07-11T14:41:19;6.10;;;1.40;;
66970;SDS011;53901;51.466;-2.588;2022-07-11T14:43:46;7.00;;;1.33;;
66970;SDS011;53901;51.466;-2.588;2022-07-11T14:46:13;7.40;;;1.20;;
66970;SDS011;53901;51.466;-2.588;2022-07-11T14:48:38;3.13;;;1.15;;
66970;SDS011;53901;51.466;-2.588;2022-07-11T14:51:04;5.53;;;1.10;;
66970;SDS011;53901;51.466;-2.588;2022-07-11T14:53:30;8.23;;;1.20;;
66970;SDS011;53901;51.466;-2.588;2022-07-11T14:55:56;4.05;;;1.33;;
66970;SDS011;53901;51.466;-2.588;2022-07-11T14:58:21;2.15;;;1.17;;
66970;SDS011;53901;51.466;-2.588;2022-07-11T15:00:47;3.15;;;1.20;;
66970;SDS011;53901;51.466;-2.588;2022-07-11T15:03:13;4.28;;;1.20;;
66970;SDS011;53901;51.466;-2.588;2022-07-11T15:05:57;5.30;;;1.20;;
66970;SDS011;53901;51.466;-2.588;2022-07-11T15:08:23;2.17;;;1.10;;
66970;SDS011;53901;51.466;-2.588;2022-07-11T15:11:08;5.38;;;1.35;;
66970;SDS011;53901;51.466;-2.588;2022-07-11T15:13:52;3.83;;;1.42;;
66970;SDS011;53901;51.466;-2.588;2022-07-11T15:16:17;6.03;;;1.30;;
66970;SDS011;53901;51.466;-2.588;2022-07-11T15:18:43;2.30;;;1.10;;
66970;SDS011;53901;51.466;-2.588;2022-07-11T15:21:09;3.25;;;1.00;;
66970;SDS011;53901;51.466;-2.588;2022-07-11T15:23:35;2.55;;;1.33;;
66970;SDS011;53901;51.466;-2.588;2022-07-11T15:26:00;3.40;;;1.20;;
66970;SDS011;53901;51.466;-2.588;2022-07-11T15:28:26;4.63;;;1.30;;
66970;SDS011;53901;51.466;-2.588;2022-07-11T15:30:51;4.05;;;1.45;;
66970;SDS011;53901;51.466;-2.588;2022-07-11T15:33:17;3.05;;;1.30;;
66970;SDS011;53901;51.466;-2.588;2022-07-11T15:35:43;5.63;;;1.27;;
66970;SDS011;53901;51.466;-2.588;2022-07-11T15:38:10;3.88;;;1.60;;
66970;SDS011;53901;51.466;-2.588;2022-07-11T15:40:36;2.53;;;1.30;;
66970;SDS011;53901;51.466;-2.588;2022-07-11T15:43:01;3.58;;;1.08;;
66970;SDS011;53901;51.466;-2.588;2022-07-11T15:45:26;3.40;;;1.20;;
66970;SDS011;53901;51.466;-2.588;2022-07-11T15:47:52;2.00;;;1.20;;